sensor_id;sensor_type;location;lat;lon;timestamp;temperature;humidity
14008;DHT22;61651;45.508;12.232;2023-04-01T00:01:58;13.90;99.90
14008;DHT22;61651;45.508;12.232;2023-04-01T00:04:59;13.90;99.90
14008;DHT22;61651;45.508;12.232;2023-04-01T00:08:03;14.00;99.90
14008;DHT22;61651;45.508;12.232;2023-04-01T00:11:06;14.00;99.90
14008;DHT22;61651;45.508;12.232;2023-04-01T00:14:08;14.00;99.90
14008;DHT22;61651;45.508;12.232;2023-04-01T00:17:11;14.00;99.90
14008;DHT22;61651;45.508;12.232;2023-04-01T00:20:13;13.90;99.90
14008;DHT22;61651;45.508;12.232;2023-04-01T00:23:16;13.90;99.90
14008;DHT22;61651;45.508;12.232;2023-04-01T00:26:19;13.90;99.90
14008;DHT22;61651;45.508;12.232;2023-04-01T00:29:22;13.90;99.90
14008;DHT22;61651;45.508;12.232;2023-04-01T00:32:24;14.00;99.90
14008;DHT22;61651;45.508;12.232;2023-04-01T00:35:27;13.90;99.90
14008;DHT22;61651;45.508;12.232;2023-04-01T00:38:30;14.00;99.90
14008;DHT22;61651;45.508;12.232;2023-04-01T00:41:32;14.00;99.90
14008;DHT22;61651;45.508;12.232;2023-04-01T00:44:36;14.00;99.90
14008;DHT22;61651;45.508;12.232;2023-04-01T00:47:38;14.10;99.90
14008;DHT22;61651;45.508;12.232;2023-04-01T00:50:43;14.10;99.90
14008;DHT22;61651;45.508;12.232;2023-04-01T00:53:50;14.20;99.90
14008;DHT22;61651;45.508;12.232;2023-04-01T00:56:56;14.20;99.90
14008;DHT22;61651;45.508;12.232;2023-04-01T00:59:59;14.20;99.90
14008;DHT22;61651;45.508;12.232;2023-04-01T01:03:01;14.30;99.90
14008;DHT22;61651;45.508;12.232;2023-04-01T01:06:22;14.30;99.90
14008;DHT22;61651;45.508;12.232;2023-04-01T01:09:32;14.10;99.90
14008;DHT22;61651;45.508;12.232;2023-04-01T01:12:40;14.00;99.90
14008;DHT22;61651;45.508;12.232;2023-04-01T01:15:49;14.10;99.90
14008;DHT22;61651;45.508;12.232;2023-04-01T01:18:58;14.10;99.90
14008;DHT22;61651;45.508;12.232;2023-04-01T01:25:42;14.10;99.90
14008;DHT22;61651;45.508;12.232;2023-04-01T01:28:50;14.10;99.90
14008;DHT22;61651;45.508;12.232;2023-04-01T01:32:04;14.00;99.90
14008;DHT22;61651;45.508;12.232;2023-04-01T01:35:26;14.00;99.90
14008;DHT22;61651;45.508;12.232;2023-04-01T01:38:31;14.00;99.90
14008;DHT22;61651;45.508;12.232;2023-04-01T01:41:35;14.00;99.90
14008;DHT22;61651;45.508;12.232;2023-04-01T01:44:38;13.90;99.90
14008;DHT22;61651;45.508;12.232;2023-04-01T01:47:41;13.80;99.90
14008;DHT22;61651;45.508;12.232;2023-04-01T01:50:46;13.70;99.90
14008;DHT22;61651;45.508;12.232;2023-04-01T01:53:49;13.70;99.90
14008;DHT22;61651;45.508;12.232;2023-04-01T01:56:55;13.70;99.90
14008;DHT22;61651;45.508;12.232;2023-04-01T02:00:02;13.50;99.90
14008;DHT22;61651;45.508;12.232;2023-04-01T02:03:04;13.50;99.90
14008;DHT22;61651;45.508;12.232;2023-04-01T02:06:10;13.30;99.90
14008;DHT22;61651;45.508;12.232;2023-04-01T02:09:12;13.30;99.90
14008;DHT22;61651;45.508;12.232;2023-04-01T02:12:16;13.40;99.90
14008;DHT22;61651;45.508;12.232;2023-04-01T02:15:20;13.40;99.90
14008;DHT22;61651;45.508;12.232;2023-04-01T02:18:23;13.40;99.90
14008;DHT22;61651;45.508;12.232;2023-04-01T02:21:29;13.40;99.90
14008;DHT22;61651;45.508;12.232;2023-04-01T02:24:34;13.40;99.90
14008;DHT22;61651;45.508;12.232;2023-04-01T02:27:37;13.40;99.90
14008;DHT22;61651;45.508;12.232;2023-04-01T02:30:41;13.40;99.90
14008;DHT22;61651;45.508;12.232;2023-04-01T02:33:45;13.40;99.90
14008;DHT22;61651;45.508;12.232;2023-04-01T02:36:49;13.30;99.90
14008;DHT22;61651;45.508;12.232;2023-04-01T02:39:52;13.40;99.90
14008;DHT22;61651;45.508;12.232;2023-04-01T02:42:54;13.30;99.90
14008;DHT22;61651;45.508;12.232;2023-04-01T02:45:56;13.30;99.90
14008;DHT22;61651;45.508;12.232;2023-04-01T02:48:58;13.30;99.90
14008;DHT22;61651;45.508;12.232;2023-04-01T02:52:01;13.40;99.90
14008;DHT22;61651;45.508;12.232;2023-04-01T02:55:05;13.30;99.90
14008;DHT22;61651;45.508;12.232;2023-04-01T02:58:08;13.30;99.90
14008;DHT22;61651;45.508;12.232;2023-04-01T03:01:10;13.00;99.90
14008;DHT22;61651;45.508;12.232;2023-04-01T03:04:12;12.80;99.90
14008;DHT22;61651;45.508;12.232;2023-04-01T03:07:15;12.70;99.90
14008;DHT22;61651;45.508;12.232;2023-04-01T03:10:17;12.80;99.90
14008;DHT22;61651;45.508;12.232;2023-04-01T03:13:19;12.90;99.90
14008;DHT22;61651;45.508;12.232;2023-04-01T03:16:21;13.00;99.90
14008;DHT22;61651;45.508;12.232;2023-04-01T03:19:23;13.00;99.90
14008;DHT22;61651;45.508;12.232;2023-04-01T03:22:27;12.90;99.90
14008;DHT22;61651;45.508;12.232;2023-04-01T03:25:29;12.90;99.90
14008;DHT22;61651;45.508;12.232;2023-04-01T03:28:31;12.80;99.90
14008;DHT22;61651;45.508;12.232;2023-04-01T03:31:33;12.90;99.90
14008;DHT22;61651;45.508;12.232;2023-04-01T03:34:35;12.90;99.90
14008;DHT22;61651;45.508;12.232;2023-04-01T03:37:38;13.00;99.90
14008;DHT22;61651;45.508;12.232;2023-04-01T03:40:42;12.90;99.90
14008;DHT22;61651;45.508;12.232;2023-04-01T03:43:44;12.90;99.90
14008;DHT22;61651;45.508;12.232;2023-04-01T03:46:46;12.80;99.90
14008;DHT22;61651;45.508;12.232;2023-04-01T03:49:48;12.80;99.90
14008;DHT22;61651;45.508;12.232;2023-04-01T03:52:51;12.80;99.90
14008;DHT22;61651;45.508;12.232;2023-04-01T03:55:53;12.80;99.90
14008;DHT22;61651;45.508;12.232;2023-04-01T03:58:56;12.70;99.90
14008;DHT22;61651;45.508;12.232;2023-04-01T04:01:58;12.70;99.90
14008;DHT22;61651;45.508;12.232;2023-04-01T04:05:00;12.70;99.90
14008;DHT22;61651;45.508;12.232;2023-04-01T04:08:04;12.60;99.90
14008;DHT22;61651;45.508;12.232;2023-04-01T04:11:06;12.20;99.90
14008;DHT22;61651;45.508;12.232;2023-04-01T04:14:08;12.20;99.90
14008;DHT22;61651;45.508;12.232;2023-04-01T04:17:10;12.30;99.90
14008;DHT22;61651;45.508;12.232;2023-04-01T04:20:16;12.40;99.90
14008;DHT22;61651;45.508;12.232;2023-04-01T04:23:20;12.40;99.90
14008;DHT22;61651;45.508;12.232;2023-04-01T04:26:22;12.30;99.90
14008;DHT22;61651;45.508;12.232;2023-04-01T04:29:24;12.20;99.90
14008;DHT22;61651;45.508;12.232;2023-04-01T04:32:26;11.60;99.90
14008;DHT22;61651;45.508;12.232;2023-04-01T04:35:28;11.40;99.90
14008;DHT22;61651;45.508;12.232;2023-04-01T04:38:31;11.60;99.90
14008;DHT22;61651;45.508;12.232;2023-04-01T04:41:33;11.80;99.90
14008;DHT22;61651;45.508;12.232;2023-04-01T04:44:35;11.90;99.90
14008;DHT22;61651;45.508;12.232;2023-04-01T04:47:37;11.50;99.90
14008;DHT22;61651;45.508;12.232;2023-04-01T04:50:40;11.20;99.90
14008;DHT22;61651;45.508;12.232;2023-04-01T04:53:44;10.80;99.90
14008;DHT22;61651;45.508;12.232;2023-04-01T04:56:46;10.80;99.90
14008;DHT22;61651;45.508;12.232;2023-04-01T04:59:48;11.10;99.90
14008;DHT22;61651;45.508;12.232;2023-04-01T05:02:50;11.40;99.90
14008;DHT22;61651;45.508;12.232;2023-04-01T05:05:53;11.50;99.90
14008;DHT22;61651;45.508;12.232;2023-04-01T05:08:56;11.60;99.90
14008;DHT22;61651;45.508;12.232;2023-04-01T05:11:58;11.70;99.90
14008;DHT22;61651;45.508;12.232;2023-04-01T05:15:00;11.80;99.90
14008;DHT22;61651;45.508;12.232;2023-04-01T05:18:02;11.80;99.90
14008;DHT22;61651;45.508;12.232;2023-04-01T05:21:06;11.80;99.90
14008;DHT22;61651;45.508;12.232;2023-04-01T05:24:10;11.40;99.90
14008;DHT22;61651;45.508;12.232;2023-04-01T05:27:12;10.90;99.90
14008;DHT22;61651;45.508;12.232;2023-04-01T05:30:14;10.70;99.90
14008;DHT22;61651;45.508;12.232;2023-04-01T05:33:16;10.80;99.90
14008;DHT22;61651;45.508;12.232;2023-04-01T05:36:18;11.00;99.90
14008;DHT22;61651;45.508;12.232;2023-04-01T05:39:21;11.10;99.90
14008;DHT22;61651;45.508;12.232;2023-04-01T05:42:24;10.90;99.90
14008;DHT22;61651;45.508;12.232;2023-04-01T05:45:26;10.80;99.90
14008;DHT22;61651;45.508;12.232;2023-04-01T05:48:28;10.70;99.90
14008;DHT22;61651;45.508;12.232;2023-04-01T05:51:30;10.90;99.90
14008;DHT22;61651;45.508;12.232;2023-04-01T05:54:34;10.50;99.90
14008;DHT22;61651;45.508;12.232;2023-04-01T05:57:36;10.30;99.90
14008;DHT22;61651;45.508;12.232;2023-04-01T06:00:38;10.50;99.90
14008;DHT22;61651;45.508;12.232;2023-04-01T06:03:40;10.80;99.90
14008;DHT22;61651;45.508;12.232;2023-04-01T06:06:42;11.10;99.90
14008;DHT22;61651;45.508;12.232;2023-04-01T06:09:45;11.40;99.90
14008;DHT22;61651;45.508;12.232;2023-04-01T06:12:56;11.70;99.90
14008;DHT22;61651;45.508;12.232;2023-04-01T06:16:07;12.00;99.90
14008;DHT22;61651;45.508;12.232;2023-04-01T06:19:22;12.20;99.90
14008;DHT22;61651;45.508;12.232;2023-04-01T06:26:14;11.50;99.90
14008;DHT22;61651;45.508;12.232;2023-04-01T06:29:39;11.00;99.90
14008;DHT22;61651;45.508;12.232;2023-04-01T06:33:05;11.00;99.90
14008;DHT22;61651;45.508;12.232;2023-04-01T06:39:59;11.50;99.90
14008;DHT22;61651;45.508;12.232;2023-04-01T06:43:13;11.80;99.90
14008;DHT22;61651;45.508;12.232;2023-04-01T06:46:21;11.80;99.90
14008;DHT22;61651;45.508;12.232;2023-04-01T06:49:37;12.00;99.90
14008;DHT22;61651;45.508;12.232;2023-04-01T06:52:48;12.20;99.90
14008;DHT22;61651;45.508;12.232;2023-04-01T06:55:55;12.30;99.90
14008;DHT22;61651;45.508;12.232;2023-04-01T06:59:03;12.60;99.90
14008;DHT22;61651;45.508;12.232;2023-04-01T07:02:19;12.60;99.90
14008;DHT22;61651;45.508;12.232;2023-04-01T07:05:25;12.60;99.90
14008;DHT22;61651;45.508;12.232;2023-04-01T07:08:34;12.70;99.90
14008;DHT22;61651;45.508;12.232;2023-04-01T07:11:38;12.90;99.90
14008;DHT22;61651;45.508;12.232;2023-04-01T07:14:42;13.10;99.90
14008;DHT22;61651;45.508;12.232;2023-04-01T07:17:46;13.20;99.90
14008;DHT22;61651;45.508;12.232;2023-04-01T07:20:51;13.20;99.90
14008;DHT22;61651;45.508;12.232;2023-04-01T07:23:57;13.30;99.90
14008;DHT22;61651;45.508;12.232;2023-04-01T07:27:02;13.40;99.90
14008;DHT22;61651;45.508;12.232;2023-04-01T07:30:14;13.60;99.90
14008;DHT22;61651;45.508;12.232;2023-04-01T07:33:20;13.70;99.90
14008;DHT22;61651;45.508;12.232;2023-04-01T07:36:29;13.80;99.90
14008;DHT22;61651;45.508;12.232;2023-04-01T07:39:40;13.80;99.90
14008;DHT22;61651;45.508;12.232;2023-04-01T07:42:54;14.00;99.90
14008;DHT22;61651;45.508;12.232;2023-04-01T07:46:03;14.30;99.90
14008;DHT22;61651;45.508;12.232;2023-04-01T07:49:14;14.20;99.90
14008;DHT22;61651;45.508;12.232;2023-04-01T07:52:21;13.90;99.90
14008;DHT22;61651;45.508;12.232;2023-04-01T07:55:30;14.00;99.90
14008;DHT22;61651;45.508;12.232;2023-04-01T07:58:43;13.90;99.90
14008;DHT22;61651;45.508;12.232;2023-04-01T08:01:54;14.20;99.90
14008;DHT22;61651;45.508;12.232;2023-04-01T08:05:06;14.40;99.90
14008;DHT22;61651;45.508;12.232;2023-04-01T08:08:15;14.40;99.90
14008;DHT22;61651;45.508;12.232;2023-04-01T08:11:28;14.20;99.90
14008;DHT22;61651;45.508;12.232;2023-04-01T08:14:36;14.50;99.90
14008;DHT22;61651;45.508;12.232;2023-04-01T08:17:48;14.70;99.90
14008;DHT22;61651;45.508;12.232;2023-04-01T08:20:57;14.90;99.90
14008;DHT22;61651;45.508;12.232;2023-04-01T08:24:06;14.80;99.90
14008;DHT22;61651;45.508;12.232;2023-04-01T08:27:16;14.90;99.90
14008;DHT22;61651;45.508;12.232;2023-04-01T08:30:21;15.20;99.90
14008;DHT22;61651;45.508;12.232;2023-04-01T08:33:27;15.40;99.90
14008;DHT22;61651;45.508;12.232;2023-04-01T08:36:34;15.50;99.90
14008;DHT22;61651;45.508;12.232;2023-04-01T08:39:41;15.50;99.90
14008;DHT22;61651;45.508;12.232;2023-04-01T08:42:55;15.20;99.90
14008;DHT22;61651;45.508;12.232;2023-04-01T08:46:17;15.10;99.90
14008;DHT22;61651;45.508;12.232;2023-04-01T08:49:41;15.20;99.90
14008;DHT22;61651;45.508;12.232;2023-04-01T08:52:49;15.20;99.90
14008;DHT22;61651;45.508;12.232;2023-04-01T08:56:08;15.40;99.90
14008;DHT22;61651;45.508;12.232;2023-04-01T08:59:40;15.60;99.90
14008;DHT22;61651;45.508;12.232;2023-04-01T09:02:57;15.80;99.90
14008;DHT22;61651;45.508;12.232;2023-04-01T09:06:44;15.90;99.90
14008;DHT22;61651;45.508;12.232;2023-04-01T09:10:15;16.00;99.90
14008;DHT22;61651;45.508;12.232;2023-04-01T09:13:43;16.10;99.90
14008;DHT22;61651;45.508;12.232;2023-04-01T09:24:14;16.10;99.90
14008;DHT22;61651;45.508;12.232;2023-04-01T09:27:27;16.30;99.90
14008;DHT22;61651;45.508;12.232;2023-04-01T09:30:46;16.50;99.90
14008;DHT22;61651;45.508;12.232;2023-04-01T09:34:25;16.30;99.90
14008;DHT22;61651;45.508;12.232;2023-04-01T09:37:35;16.50;99.90
14008;DHT22;61651;45.508;12.232;2023-04-01T09:40:45;16.60;99.90
14008;DHT22;61651;45.508;12.232;2023-04-01T09:44:03;16.60;99.90
14008;DHT22;61651;45.508;12.232;2023-04-01T09:47:19;16.50;99.90
14008;DHT22;61651;45.508;12.232;2023-04-01T09:50:30;16.60;99.90
14008;DHT22;61651;45.508;12.232;2023-04-01T09:53:53;16.90;99.90
14008;DHT22;61651;45.508;12.232;2023-04-01T09:57:23;17.20;99.90
14008;DHT22;61651;45.508;12.232;2023-04-01T10:00:55;17.40;99.90
14008;DHT22;61651;45.508;12.232;2023-04-01T10:04:30;17.40;99.90
14008;DHT22;61651;45.508;12.232;2023-04-01T10:08:03;17.60;99.90
14008;DHT22;61651;45.508;12.232;2023-04-01T10:11:29;17.90;99.90
14008;DHT22;61651;45.508;12.232;2023-04-01T10:26:11;18.00;99.90
14008;DHT22;61651;45.508;12.232;2023-04-01T10:29:57;18.20;99.90
14008;DHT22;61651;45.508;12.232;2023-04-01T10:36:54;18.50;99.90
14008;DHT22;61651;45.508;12.232;2023-04-01T10:43:52;18.30;99.90
14008;DHT22;61651;45.508;12.232;2023-04-01T10:47:39;18.50;99.90
14008;DHT22;61651;45.508;12.232;2023-04-01T10:54:45;18.90;99.90
14008;DHT22;61651;45.508;12.232;2023-04-01T10:58:06;19.10;99.90
14008;DHT22;61651;45.508;12.232;2023-04-01T11:05:30;19.40;99.90
14008;DHT22;61651;45.508;12.232;2023-04-01T11:23:42;20.20;99.90
14008;DHT22;61651;45.508;12.232;2023-04-01T11:26:53;20.30;99.90
14008;DHT22;61651;45.508;12.232;2023-04-01T11:30:10;20.50;99.90
14008;DHT22;61651;45.508;12.232;2023-04-01T11:33:19;20.60;99.90
14008;DHT22;61651;45.508;12.232;2023-04-01T11:36:35;20.70;99.90
14008;DHT22;61651;45.508;12.232;2023-04-01T11:39:50;20.80;99.90
14008;DHT22;61651;45.508;12.232;2023-04-01T11:43:01;20.90;99.90
14008;DHT22;61651;45.508;12.232;2023-04-01T11:46:20;21.00;99.90
14008;DHT22;61651;45.508;12.232;2023-04-01T11:49:33;20.90;99.90
14008;DHT22;61651;45.508;12.232;2023-04-01T11:52:53;21.00;99.90
14008;DHT22;61651;45.508;12.232;2023-04-01T11:56:08;21.20;99.90
14008;DHT22;61651;45.508;12.232;2023-04-01T11:59:32;21.30;99.90
14008;DHT22;61651;45.508;12.232;2023-04-01T12:02:50;21.30;99.90
14008;DHT22;61651;45.508;12.232;2023-04-01T12:06:02;21.40;99.90
14008;DHT22;61651;45.508;12.232;2023-04-01T12:09:12;21.50;99.90
14008;DHT22;61651;45.508;12.232;2023-04-01T12:12:26;21.60;99.90
14008;DHT22;61651;45.508;12.232;2023-04-01T12:15:42;21.60;99.90
14008;DHT22;61651;45.508;12.232;2023-04-01T12:18:50;21.70;99.90
14008;DHT22;61651;45.508;12.232;2023-04-01T12:22:06;21.70;99.90
14008;DHT22;61651;45.508;12.232;2023-04-01T12:25:22;21.60;99.90
14008;DHT22;61651;45.508;12.232;2023-04-01T12:28:41;21.50;99.90
14008;DHT22;61651;45.508;12.232;2023-04-01T12:31:53;21.50;99.90
14008;DHT22;61651;45.508;12.232;2023-04-01T12:35:13;21.70;99.90
14008;DHT22;61651;45.508;12.232;2023-04-01T12:38:27;21.80;99.90
14008;DHT22;61651;45.508;12.232;2023-04-01T12:41:38;21.90;99.90
14008;DHT22;61651;45.508;12.232;2023-04-01T12:44:56;22.00;99.90
14008;DHT22;61651;45.508;12.232;2023-04-01T12:51:53;22.30;99.90
14008;DHT22;61651;45.508;12.232;2023-04-01T12:55:29;22.40;99.90
14008;DHT22;61651;45.508;12.232;2023-04-01T12:59:03;22.60;99.90
14008;DHT22;61651;45.508;12.232;2023-04-01T13:02:22;22.80;99.90
14008;DHT22;61651;45.508;12.232;2023-04-01T13:06:02;23.00;99.90
14008;DHT22;61651;45.508;12.232;2023-04-01T13:09:20;23.20;99.90
14008;DHT22;61651;45.508;12.232;2023-04-01T13:12:38;23.50;99.90
14008;DHT22;61651;45.508;12.232;2023-04-01T13:15:46;23.10;99.90
14008;DHT22;61651;45.508;12.232;2023-04-01T13:18:58;23.30;99.90
14008;DHT22;61651;45.508;12.232;2023-04-01T13:22:07;23.80;99.90
14008;DHT22;61651;45.508;12.232;2023-04-01T13:25:21;24.20;99.90
14008;DHT22;61651;45.508;12.232;2023-04-01T13:28:30;24.60;99.90
14008;DHT22;61651;45.508;12.232;2023-04-01T13:31:42;24.80;99.90
14008;DHT22;61651;45.508;12.232;2023-04-01T13:34:59;25.00;99.90
14008;DHT22;61651;45.508;12.232;2023-04-01T13:38:39;25.20;99.90
14008;DHT22;61651;45.508;12.232;2023-04-01T13:42:06;25.50;99.90
14008;DHT22;61651;45.508;12.232;2023-04-01T13:45:16;25.70;99.90
14008;DHT22;61651;45.508;12.232;2023-04-01T13:48:33;25.90;99.90
14008;DHT22;61651;45.508;12.232;2023-04-01T13:51:55;25.90;99.90
14008;DHT22;61651;45.508;12.232;2023-04-01T13:58:43;26.10;99.90
14008;DHT22;61651;45.508;12.232;2023-04-01T14:01:52;26.60;99.90
14008;DHT22;61651;45.508;12.232;2023-04-01T14:05:10;27.00;99.90
14008;DHT22;61651;45.508;12.232;2023-04-01T14:08:26;27.40;99.90
14008;DHT22;61651;45.508;12.232;2023-04-01T14:11:39;27.70;99.90
14008;DHT22;61651;45.508;12.232;2023-04-01T14:14:56;28.00;99.80
14008;DHT22;61651;45.508;12.232;2023-04-01T14:18:17;28.20;99.60
14008;DHT22;61651;45.508;12.232;2023-04-01T14:25:01;28.60;97.80
14008;DHT22;61651;45.508;12.232;2023-04-01T14:28:13;28.70;97.50
14008;DHT22;61651;45.508;12.232;2023-04-01T14:31:31;28.80;96.30
14008;DHT22;61651;45.508;12.232;2023-04-01T14:34:50;28.90;96.60
14008;DHT22;61651;45.508;12.232;2023-04-01T14:38:05;28.90;95.60
14008;DHT22;61651;45.508;12.232;2023-04-01T14:41:19;29.00;95.80
14008;DHT22;61651;45.508;12.232;2023-04-01T14:44:51;29.00;96.00
14008;DHT22;61651;45.508;12.232;2023-04-01T14:47:58;28.90;94.00
14008;DHT22;61651;45.508;12.232;2023-04-01T14:51:10;28.60;93.90
14008;DHT22;61651;45.508;12.232;2023-04-01T14:54:20;28.80;94.50
14008;DHT22;61651;45.508;12.232;2023-04-01T14:57:27;28.90;93.80
14008;DHT22;61651;45.508;12.232;2023-04-01T15:00:48;28.60;93.70
14008;DHT22;61651;45.508;12.232;2023-04-01T15:03:55;28.70;94.00
14008;DHT22;61651;45.508;12.232;2023-04-01T15:07:20;28.60;93.80
14008;DHT22;61651;45.508;12.232;2023-04-01T15:10:43;28.50;93.60
14008;DHT22;61651;45.508;12.232;2023-04-01T15:14:08;28.50;93.90
14008;DHT22;61651;45.508;12.232;2023-04-01T15:17:27;28.40;93.70
14008;DHT22;61651;45.508;12.232;2023-04-01T15:20:55;28.40;94.30
14008;DHT22;61651;45.508;12.232;2023-04-01T15:24:06;28.40;94.80
14008;DHT22;61651;45.508;12.232;2023-04-01T15:27:15;28.40;94.20
14008;DHT22;61651;45.508;12.232;2023-04-01T15:30:29;28.20;93.60
14008;DHT22;61651;45.508;12.232;2023-04-01T15:33:49;28.10;94.20
14008;DHT22;61651;45.508;12.232;2023-04-01T15:37:00;28.00;94.10
14008;DHT22;61651;45.508;12.232;2023-04-01T15:40:15;27.70;93.90
14008;DHT22;61651;45.508;12.232;2023-04-01T15:43:30;27.70;94.20
14008;DHT22;61651;45.508;12.232;2023-04-01T15:46:44;27.70;94.50
14008;DHT22;61651;45.508;12.232;2023-04-01T15:49:50;27.60;94.30
14008;DHT22;61651;45.508;12.232;2023-04-01T15:53:07;27.50;94.40
14008;DHT22;61651;45.508;12.232;2023-04-01T15:56:23;27.30;94.30
14008;DHT22;61651;45.508;12.232;2023-04-01T15:59:51;27.20;95.10
14008;DHT22;61651;45.508;12.232;2023-04-01T16:03:22;27.10;95.30
14008;DHT22;61651;45.508;12.232;2023-04-01T16:06:43;26.90;95.20
14008;DHT22;61651;45.508;12.232;2023-04-01T16:10:03;26.40;95.00
14008;DHT22;61651;45.508;12.232;2023-04-01T16:13:22;26.00;95.00
14008;DHT22;61651;45.508;12.232;2023-04-01T16:16:35;25.50;95.70
14008;DHT22;61651;45.508;12.232;2023-04-01T16:19:49;25.10;96.80
14008;DHT22;61651;45.508;12.232;2023-04-01T16:22:57;24.70;97.50
14008;DHT22;61651;45.508;12.232;2023-04-01T16:26:05;24.40;98.00
14008;DHT22;61651;45.508;12.232;2023-04-01T16:29:12;24.00;98.40
14008;DHT22;61651;45.508;12.232;2023-04-01T16:32:31;23.90;98.50
14008;DHT22;61651;45.508;12.232;2023-04-01T16:35:42;23.60;98.60
14008;DHT22;61651;45.508;12.232;2023-04-01T16:38:52;23.30;98.80
14008;DHT22;61651;45.508;12.232;2023-04-01T16:42:13;23.10;99.60
14008;DHT22;61651;45.508;12.232;2023-04-01T16:45:26;22.80;99.90
14008;DHT22;61651;45.508;12.232;2023-04-01T16:48:49;22.60;99.90
14008;DHT22;61651;45.508;12.232;2023-04-01T16:52:00;22.40;99.90
14008;DHT22;61651;45.508;12.232;2023-04-01T16:55:15;22.30;99.90
14008;DHT22;61651;45.508;12.232;2023-04-01T16:58:23;22.10;99.90
14008;DHT22;61651;45.508;12.232;2023-04-01T17:01:30;21.90;99.90
14008;DHT22;61651;45.508;12.232;2023-04-01T17:04:38;21.80;99.90
14008;DHT22;61651;45.508;12.232;2023-04-01T17:07:49;21.60;99.90
14008;DHT22;61651;45.508;12.232;2023-04-01T17:11:00;21.50;99.90
14008;DHT22;61651;45.508;12.232;2023-04-01T17:14:13;21.30;99.90
14008;DHT22;61651;45.508;12.232;2023-04-01T17:17:23;21.10;99.90
14008;DHT22;61651;45.508;12.232;2023-04-01T17:20:35;20.90;99.90
14008;DHT22;61651;45.508;12.232;2023-04-01T17:23:46;20.80;99.90
14008;DHT22;61651;45.508;12.232;2023-04-01T17:26:57;20.60;99.90
14008;DHT22;61651;45.508;12.232;2023-04-01T17:30:20;20.50;99.90
14008;DHT22;61651;45.508;12.232;2023-04-01T17:33:43;20.40;99.90
14008;DHT22;61651;45.508;12.232;2023-04-01T17:37:02;20.30;99.90
14008;DHT22;61651;45.508;12.232;2023-04-01T17:40:24;20.10;99.90
14008;DHT22;61651;45.508;12.232;2023-04-01T17:43:38;20.00;99.90
14008;DHT22;61651;45.508;12.232;2023-04-01T17:47:01;19.80;99.90
14008;DHT22;61651;45.508;12.232;2023-04-01T17:50:18;19.70;99.90
14008;DHT22;61651;45.508;12.232;2023-04-01T17:53:31;19.60;99.90
14008;DHT22;61651;45.508;12.232;2023-04-01T17:56:45;19.40;99.90
14008;DHT22;61651;45.508;12.232;2023-04-01T17:59:56;19.40;99.90
14008;DHT22;61651;45.508;12.232;2023-04-01T18:03:16;19.30;99.90
14008;DHT22;61651;45.508;12.232;2023-04-01T18:06:31;19.20;99.90
14008;DHT22;61651;45.508;12.232;2023-04-01T18:09:45;19.00;99.90
14008;DHT22;61651;45.508;12.232;2023-04-01T18:16:49;18.60;99.90
14008;DHT22;61651;45.508;12.232;2023-04-01T18:20:07;18.40;99.90
14008;DHT22;61651;45.508;12.232;2023-04-01T18:23:23;18.30;99.90
14008;DHT22;61651;45.508;12.232;2023-04-01T18:26:30;18.20;99.90
14008;DHT22;61651;45.508;12.232;2023-04-01T18:29:40;18.20;99.90
14008;DHT22;61651;45.508;12.232;2023-04-01T18:32:47;18.20;99.90
14008;DHT22;61651;45.508;12.232;2023-04-01T18:35:52;18.20;99.90
14008;DHT22;61651;45.508;12.232;2023-04-01T18:39:00;18.20;99.90
14008;DHT22;61651;45.508;12.232;2023-04-01T18:42:07;18.20;99.90
14008;DHT22;61651;45.508;12.232;2023-04-01T18:45:21;18.10;99.90
14008;DHT22;61651;45.508;12.232;2023-04-01T18:48:37;18.10;99.90
14008;DHT22;61651;45.508;12.232;2023-04-01T18:51:46;18.10;99.90
14008;DHT22;61651;45.508;12.232;2023-04-01T18:55:20;18.00;99.90
14008;DHT22;61651;45.508;12.232;2023-04-01T18:58:28;18.00;99.90
14008;DHT22;61651;45.508;12.232;2023-04-01T19:01:39;17.90;99.90
14008;DHT22;61651;45.508;12.232;2023-04-01T19:04:46;17.90;99.90
14008;DHT22;61651;45.508;12.232;2023-04-01T19:07:53;17.90;99.90
14008;DHT22;61651;45.508;12.232;2023-04-01T19:11:05;17.80;99.90
14008;DHT22;61651;45.508;12.232;2023-04-01T19:14:15;17.80;99.90
14008;DHT22;61651;45.508;12.232;2023-04-01T19:17:26;17.80;99.90
14008;DHT22;61651;45.508;12.232;2023-04-01T19:20:35;17.70;99.90
14008;DHT22;61651;45.508;12.232;2023-04-01T19:27:27;17.70;99.90
14008;DHT22;61651;45.508;12.232;2023-04-01T19:30:51;17.70;99.90
14008;DHT22;61651;45.508;12.232;2023-04-01T19:34:07;17.60;99.90
14008;DHT22;61651;45.508;12.232;2023-04-01T19:37:17;17.60;99.90
14008;DHT22;61651;45.508;12.232;2023-04-01T19:40:37;17.60;99.90
14008;DHT22;61651;45.508;12.232;2023-04-01T19:43:51;17.60;99.90
14008;DHT22;61651;45.508;12.232;2023-04-01T19:47:01;17.60;99.90
14008;DHT22;61651;45.508;12.232;2023-04-01T19:50:14;17.60;99.90
14008;DHT22;61651;45.508;12.232;2023-04-01T19:53:23;17.50;99.90
14008;DHT22;61651;45.508;12.232;2023-04-01T19:56:34;17.50;99.90
14008;DHT22;61651;45.508;12.232;2023-04-01T19:59:42;17.50;99.90
14008;DHT22;61651;45.508;12.232;2023-04-01T20:03:03;17.50;99.90
14008;DHT22;61651;45.508;12.232;2023-04-01T20:06:14;17.40;99.90
14008;DHT22;61651;45.508;12.232;2023-04-01T20:09:34;17.50;99.90
14008;DHT22;61651;45.508;12.232;2023-04-01T20:12:43;17.50;99.90
14008;DHT22;61651;45.508;12.232;2023-04-01T20:15:59;17.50;99.90
14008;DHT22;61651;45.508;12.232;2023-04-01T20:19:03;17.50;99.90
14008;DHT22;61651;45.508;12.232;2023-04-01T20:22:16;17.40;99.90
14008;DHT22;61651;45.508;12.232;2023-04-01T20:25:25;17.40;99.90
14008;DHT22;61651;45.508;12.232;2023-04-01T20:28:30;17.40;99.90
14008;DHT22;61651;45.508;12.232;2023-04-01T20:31:35;17.40;99.90
14008;DHT22;61651;45.508;12.232;2023-04-01T20:34:56;17.40;99.90
14008;DHT22;61651;45.508;12.232;2023-04-01T20:38:18;17.40;99.90
14008;DHT22;61651;45.508;12.232;2023-04-01T20:41:27;17.40;99.90
14008;DHT22;61651;45.508;12.232;2023-04-01T20:44:34;17.40;99.90
14008;DHT22;61651;45.508;12.232;2023-04-01T20:47:49;17.30;99.90
14008;DHT22;61651;45.508;12.232;2023-04-01T20:50:57;17.30;99.90
14008;DHT22;61651;45.508;12.232;2023-04-01T20:54:11;17.20;99.90
14008;DHT22;61651;45.508;12.232;2023-04-01T20:57:20;17.20;99.90
14008;DHT22;61651;45.508;12.232;2023-04-01T21:00:37;17.10;99.90
14008;DHT22;61651;45.508;12.232;2023-04-01T21:03:51;17.10;99.90
14008;DHT22;61651;45.508;12.232;2023-04-01T21:07:08;17.00;99.90